sensor_id;sensor_type;location;lat;lon;timestamp;pressure;altitude;pressure_sealevel;temperature;humidity
60583;BME280;46415;47.536;19.066;2023-07-02T00:03:01;-18806.91;;;21.35;99.90
60583;BME280;46415;47.536;19.066;2023-07-02T00:06:04;-18806.91;;;21.35;99.63
60583;BME280;46415;47.536;19.066;2023-07-02T00:09:07;-18804.84;;;21.28;99.90
60583;BME280;46415;47.536;19.066;2023-07-02T00:12:10;-18806.34;;;21.33;99.31
60583;BME280;46415;47.536;19.066;2023-07-02T00:15:12;-18803.91;;;21.24;99.27
60583;BME280;46415;47.536;19.066;2023-07-02T00:18:16;-18804.06;;;21.25;99.22
60583;BME280;46415;47.536;19.066;2023-07-02T00:21:19;-18804.84;;;21.28;98.49
60583;BME280;46415;47.536;19.066;2023-07-02T00:24:23;-18806.34;;;21.33;97.45
60583;BME280;46415;47.536;19.066;2023-07-02T00:27:25;-18805.53;;;21.30;97.51
60583;BME280;46415;47.536;19.066;2023-07-02T00:30:28;-18805.00;;;21.28;97.05
60583;BME280;46415;47.536;19.066;2023-07-02T00:33:31;-18805.41;;;21.30;96.81
60583;BME280;46415;47.536;19.066;2023-07-02T00:36:34;-18804.72;;;21.27;96.82
60583;BME280;46415;47.536;19.066;2023-07-02T00:39:37;-18804.72;;;21.27;96.72
60583;BME280;46415;47.536;19.066;2023-07-02T00:42:40;-18802.56;;;21.19;97.33
60583;BME280;46415;47.536;19.066;2023-07-02T00:45:44;-18804.06;;;21.25;96.50
60583;BME280;46415;47.536;19.066;2023-07-02T00:48:53;-18804.19;;;21.25;96.20
60583;BME280;46415;47.536;19.066;2023-07-02T00:51:56;-18803.63;;;21.23;96.05
60583;BME280;46415;47.536;19.066;2023-07-02T00:54:59;-18800.78;;;21.12;96.64
60583;BME280;46415;47.536;19.066;2023-07-02T00:58:01;-18802.56;;;21.19;95.79
60583;BME280;46415;47.536;19.066;2023-07-02T01:01:04;-18800.66;;;21.12;96.16
60583;BME280;46415;47.536;19.066;2023-07-02T01:04:07;-18798.63;;;21.04;96.33
60583;BME280;46415;47.536;19.066;2023-07-02T01:07:10;-18800.09;;;21.10;96.26
60583;BME280;46415;47.536;19.066;2023-07-02T01:10:13;-18799.84;;;21.09;95.82
60583;BME280;46415;47.536;19.066;2023-07-02T01:13:19;-18797.94;;;21.02;96.11
60583;BME280;46415;47.536;19.066;2023-07-02T01:16:23;-18797.81;;;21.01;95.46
60583;BME280;46415;47.536;19.066;2023-07-02T01:19:48;-18797.25;;;20.99;96.10
60583;BME280;46415;47.536;19.066;2023-07-02T01:22:55;-18797.94;;;21.02;95.31
60583;BME280;46415;47.536;19.066;2023-07-02T01:25:59;-18798.34;;;21.03;95.06
60583;BME280;46415;47.536;19.066;2023-07-02T01:29:17;-18798.75;;;21.05;95.13
60583;BME280;46415;47.536;19.066;2023-07-02T01:32:20;-18798.22;;;21.03;94.96
60583;BME280;46415;47.536;19.066;2023-07-02T01:35:25;-18798.75;;;21.05;94.63
60583;BME280;46415;47.536;19.066;2023-07-02T01:38:28;-18798.06;;;21.02;94.83
60583;BME280;46415;47.536;19.066;2023-07-02T01:41:44;-18799.72;;;21.08;94.05
60583;BME280;46415;47.536;19.066;2023-07-02T01:44:48;-18800.09;;;21.10;93.59
60583;BME280;46415;47.536;19.066;2023-07-02T01:47:51;-18798.75;;;21.05;93.92
60583;BME280;46415;47.536;19.066;2023-07-02T01:50:55;-18797.66;;;21.01;93.83
60583;BME280;46415;47.536;19.066;2023-07-02T01:53:57;-18796.31;;;20.96;93.63
60583;BME280;46415;47.536;19.066;2023-07-02T01:57:00;-18797.94;;;21.02;93.12
60583;BME280;46415;47.536;19.066;2023-07-02T02:00:04;-18797.66;;;21.01;93.17
60583;BME280;46415;47.536;19.066;2023-07-02T02:03:16;-18798.34;;;21.03;92.81
60583;BME280;46415;47.536;19.066;2023-07-02T02:06:19;-18796.19;;;20.95;93.33
60583;BME280;46415;47.536;19.066;2023-07-02T02:09:23;-18796.44;;;20.96;93.34
60583;BME280;46415;47.536;19.066;2023-07-02T02:12:26;-18795.78;;;20.94;93.57
60583;BME280;46415;47.536;19.066;2023-07-02T02:15:31;-18795.50;;;20.93;92.71
60583;BME280;46415;47.536;19.066;2023-07-02T02:18:34;-18795.50;;;20.93;92.88
60583;BME280;46415;47.536;19.066;2023-07-02T02:21:37;-18794.00;;;20.87;92.04
60583;BME280;46415;47.536;19.066;2023-07-02T02:24:40;-18794.16;;;20.88;92.07
60583;BME280;46415;47.536;19.066;2023-07-02T02:27:43;-18794.00;;;20.87;91.99
60583;BME280;46415;47.536;19.066;2023-07-02T02:30:47;-18792.38;;;20.81;92.13
60583;BME280;46415;47.536;19.066;2023-07-02T02:33:50;-18792.78;;;20.83;91.96
60583;BME280;46415;47.536;19.066;2023-07-02T02:36:54;-18790.63;;;20.74;92.54
60583;BME280;46415;47.536;19.066;2023-07-02T02:39:58;-18789.25;;;20.69;92.07
60583;BME280;46415;47.536;19.066;2023-07-02T02:43:01;-18788.84;;;20.68;92.36
60583;BME280;46415;47.536;19.066;2023-07-02T02:46:04;-18788.31;;;20.66;91.88
60583;BME280;46415;47.536;19.066;2023-07-02T02:49:06;-18788.84;;;20.68;90.93
60583;BME280;46415;47.536;19.066;2023-07-02T02:52:09;-18787.50;;;20.63;90.81
60583;BME280;46415;47.536;19.066;2023-07-02T02:55:12;-18789.25;;;20.69;89.63
60583;BME280;46415;47.536;19.066;2023-07-02T02:58:15;-18789.00;;;20.68;89.25
60583;BME280;46415;47.536;19.066;2023-07-02T03:01:18;-18789.25;;;20.69;89.74
60583;BME280;46415;47.536;19.066;2023-07-02T03:04:20;-18789.53;;;20.70;89.17
60583;BME280;46415;47.536;19.066;2023-07-02T03:07:26;-18787.34;;;20.62;88.98
60583;BME280;46415;47.536;19.066;2023-07-02T03:10:29;-18785.47;;;20.55;89.13
60583;BME280;46415;47.536;19.066;2023-07-02T03:13:32;-18786.41;;;20.59;89.55
60583;BME280;46415;47.536;19.066;2023-07-02T03:16:35;-18786.28;;;20.58;89.84
60583;BME280;46415;47.536;19.066;2023-07-02T03:19:38;-18786.97;;;20.61;89.00
60583;BME280;46415;47.536;19.066;2023-07-02T03:22:40;-18784.66;;;20.52;89.27
60583;BME280;46415;47.536;19.066;2023-07-02T03:25:43;-18785.06;;;20.54;89.12
60583;BME280;46415;47.536;19.066;2023-07-02T03:28:46;-18785.72;;;20.56;89.04
60583;BME280;46415;47.536;19.066;2023-07-02T03:31:49;-18786.81;;;20.60;88.44
60583;BME280;46415;47.536;19.066;2023-07-02T03:34:51;-18787.63;;;20.63;88.55
60583;BME280;46415;47.536;19.066;2023-07-02T03:37:54;-18788.72;;;20.67;88.26
60583;BME280;46415;47.536;19.066;2023-07-02T03:40:57;-18788.44;;;20.66;87.85
60583;BME280;46415;47.536;19.066;2023-07-02T03:43:59;-18792.09;;;20.80;86.98
60583;BME280;46415;47.536;19.066;2023-07-02T03:47:02;-18792.09;;;20.80;86.57
60583;BME280;46415;47.536;19.066;2023-07-02T03:50:05;-18793.34;;;20.85;86.08
60583;BME280;46415;47.536;19.066;2023-07-02T03:53:09;-18792.50;;;20.82;85.91
60583;BME280;46415;47.536;19.066;2023-07-02T03:56:12;-18793.19;;;20.84;85.98
60583;BME280;46415;47.536;19.066;2023-07-02T03:59:15;-18794.41;;;20.89;85.63
60583;BME280;46415;47.536;19.066;2023-07-02T04:02:18;-18795.78;;;20.94;85.25
60583;BME280;46415;47.536;19.066;2023-07-02T04:05:21;-18794.41;;;20.89;85.91
60583;BME280;46415;47.536;19.066;2023-07-02T04:08:24;-18796.59;;;20.97;85.70
60583;BME280;46415;47.536;19.066;2023-07-02T04:11:30;-18794.16;;;20.88;85.51
60583;BME280;46415;47.536;19.066;2023-07-02T04:14:33;-18795.63;;;20.93;85.54
60583;BME280;46415;47.536;19.066;2023-07-02T04:17:36;-18796.59;;;20.97;85.10
60583;BME280;46415;47.536;19.066;2023-07-02T04:20:39;-18801.34;;;21.14;83.69
60583;BME280;46415;47.536;19.066;2023-07-02T04:23:41;-18800.94;;;21.13;83.74
60583;BME280;46415;47.536;19.066;2023-07-02T04:26:45;-18803.09;;;21.21;83.81
60583;BME280;46415;47.536;19.066;2023-07-02T04:30:08;-18806.09;;;21.32;82.62
60583;BME280;46415;47.536;19.066;2023-07-02T04:33:12;-18813.25;;;21.59;82.71
60583;BME280;46415;47.536;19.066;2023-07-02T04:36:16;-18818.56;;;21.79;81.12
60583;BME280;46415;47.536;19.066;2023-07-02T04:39:19;-18822.91;;;21.95;79.63
60583;BME280;46415;47.536;19.066;2023-07-02T04:42:22;-18824.25;;;22.00;79.05
60583;BME280;46415;47.536;19.066;2023-07-02T04:45:30;-18823.44;;;21.97;78.65
60583;BME280;46415;47.536;19.066;2023-07-02T04:48:35;-18829.13;;;22.18;78.67
60583;BME280;46415;47.536;19.066;2023-07-02T04:51:38;-18832.38;;;22.30;76.07
60583;BME280;46415;47.536;19.066;2023-07-02T04:54:41;-18832.91;;;22.32;76.48
60583;BME280;46415;47.536;19.066;2023-07-02T04:57:44;-18842.94;;;22.70;75.16
60583;BME280;46415;47.536;19.066;2023-07-02T05:00:47;-18850.81;;;22.99;73.89
60583;BME280;46415;47.536;19.066;2023-07-02T05:03:50;-18852.16;;;23.04;71.76
60583;BME280;46415;47.536;19.066;2023-07-02T05:06:53;-18859.19;;;23.31;72.00
60583;BME280;46415;47.536;19.066;2023-07-02T05:09:56;-18852.16;;;23.04;69.99
60583;BME280;46415;47.536;19.066;2023-07-02T05:12:58;-18853.09;;;23.08;70.14
60583;BME280;46415;47.536;19.066;2023-07-02T05:16:01;-18850.81;;;22.99;71.41
60583;BME280;46415;47.536;19.066;2023-07-02T05:19:04;-18849.31;;;22.94;71.15
60583;BME280;46415;47.536;19.066;2023-07-02T05:22:07;-18853.50;;;23.09;70.86
60583;BME280;46415;47.536;19.066;2023-07-02T05:25:10;-18855.25;;;23.16;70.14
60583;BME280;46415;47.536;19.066;2023-07-02T05:28:13;-18856.63;;;23.21;69.37
60583;BME280;46415;47.536;19.066;2023-07-02T05:31:16;-18862.16;;;23.42;69.38
60583;BME280;46415;47.536;19.066;2023-07-02T05:34:19;-18869.88;;;23.71;67.53
60583;BME280;46415;47.536;19.066;2023-07-02T05:37:22;-18864.88;;;23.52;67.84
60583;BME280;46415;47.536;19.066;2023-07-02T05:40:25;-18870.00;;;23.71;68.30
60583;BME280;46415;47.536;19.066;2023-07-02T05:43:28;-18867.84;;;23.63;67.83
60583;BME280;46415;47.536;19.066;2023-07-02T05:46:31;-18863.78;;;23.48;69.64
60583;BME280;46415;47.536;19.066;2023-07-02T05:49:34;-18856.06;;;23.19;70.10
60583;BME280;46415;47.536;19.066;2023-07-02T05:52:36;-18852.69;;;23.06;71.42
60583;BME280;46415;47.536;19.066;2023-07-02T05:55:39;-18853.63;;;23.10;70.67
60583;BME280;46415;47.536;19.066;2023-07-02T05:58:45;-18850.66;;;22.99;71.66
60583;BME280;46415;47.536;19.066;2023-07-02T06:01:50;-18849.72;;;22.95;72.39
60583;BME280;46415;47.536;19.066;2023-07-02T06:04:53;-18850.25;;;22.97;72.52
60583;BME280;46415;47.536;19.066;2023-07-02T06:07:56;-18853.63;;;23.10;71.87
60583;BME280;46415;47.536;19.066;2023-07-02T06:10:59;-18855.94;;;23.18;70.46
60583;BME280;46415;47.536;19.066;2023-07-02T06:14:01;-18858.66;;;23.29;70.74
60583;BME280;46415;47.536;19.066;2023-07-02T06:17:04;-18860.00;;;23.34;69.24
60583;BME280;46415;47.536;19.066;2023-07-02T06:20:10;-18861.22;;;23.38;70.64
60583;BME280;46415;47.536;19.066;2023-07-02T06:23:13;-18865.97;;;23.56;69.56
60583;BME280;46415;47.536;19.066;2023-07-02T06:26:16;-18862.69;;;23.44;70.13
60583;BME280;46415;47.536;19.066;2023-07-02T06:29:19;-18864.75;;;23.51;70.11
60583;BME280;46415;47.536;19.066;2023-07-02T06:32:21;-18866.91;;;23.59;69.69
60583;BME280;46415;47.536;19.066;2023-07-02T06:35:24;-18864.88;;;23.52;68.67
60583;BME280;46415;47.536;19.066;2023-07-02T06:38:27;-18867.72;;;23.63;69.00
60583;BME280;46415;47.536;19.066;2023-07-02T06:41:30;-18871.91;;;23.78;67.63
60583;BME280;46415;47.536;19.066;2023-07-02T06:44:32;-18876.63;;;23.96;67.31
60583;BME280;46415;47.536;19.066;2023-07-02T06:47:35;-18881.63;;;24.15;67.50
60583;BME280;46415;47.536;19.066;2023-07-02T06:50:38;-18885.97;;;24.31;66.48
60583;BME280;46415;47.536;19.066;2023-07-02T06:53:41;-18896.66;;;24.71;65.32
60583;BME280;46415;47.536;19.066;2023-07-02T06:56:44;-18905.28;;;25.03;61.98
60583;BME280;46415;47.536;19.066;2023-07-02T06:59:47;-18904.63;;;25.01;60.30
60583;BME280;46415;47.536;19.066;2023-07-02T07:02:51;-18904.91;;;25.02;62.16
60583;BME280;46415;47.536;19.066;2023-07-02T07:05:55;-18910.16;;;25.21;60.90
60583;BME280;46415;47.536;19.066;2023-07-02T07:08:58;-18908.81;;;25.16;62.45
60583;BME280;46415;47.536;19.066;2023-07-02T07:12:01;-18912.31;;;25.30;59.35
60583;BME280;46415;47.536;19.066;2023-07-02T07:15:03;-18909.22;;;25.18;58.55
60583;BME280;46415;47.536;19.066;2023-07-02T07:18:08;-18910.28;;;25.22;58.30
60583;BME280;46415;47.536;19.066;2023-07-02T07:21:11;-18908.00;;;25.13;58.52
60583;BME280;46415;47.536;19.066;2023-07-02T07:24:14;-18910.97;;;25.25;59.17
60583;BME280;46415;47.536;19.066;2023-07-02T07:27:17;-18918.53;;;25.53;58.37
60583;BME280;46415;47.536;19.066;2023-07-02T07:30:21;-18916.50;;;25.45;59.17
60583;BME280;46415;47.536;19.066;2023-07-02T07:33:27;-18915.16;;;25.40;58.45
60583;BME280;46415;47.536;19.066;2023-07-02T07:36:30;-18915.03;;;25.40;58.92
60583;BME280;46415;47.536;19.066;2023-07-02T07:39:32;-18915.69;;;25.42;59.02
60583;BME280;46415;47.536;19.066;2023-07-02T07:42:35;-18916.22;;;25.44;59.54
60583;BME280;46415;47.536;19.066;2023-07-02T07:45:38;-18928.13;;;25.89;56.56
60583;BME280;46415;47.536;19.066;2023-07-02T07:48:41;-18940.41;;;26.35;54.32
60583;BME280;46415;47.536;19.066;2023-07-02T07:51:43;-18946.47;;;26.58;52.47
60583;BME280;46415;47.536;19.066;2023-07-02T07:54:46;-18959.28;;;27.06;50.20
60583;BME280;46415;47.536;19.066;2023-07-02T07:57:50;-18963.59;;;27.22;50.60
60583;BME280;46415;47.536;19.066;2023-07-02T08:00:53;-18966.28;;;27.32;49.14
60583;BME280;46415;47.536;19.066;2023-07-02T08:03:56;-18959.13;;;27.05;49.91
60583;BME280;46415;47.536;19.066;2023-07-02T08:06:59;-18951.72;;;26.77;51.97
60583;BME280;46415;47.536;19.066;2023-07-02T08:10:02;-18958.59;;;27.03;50.81
60583;BME280;46415;47.536;19.066;2023-07-02T08:13:05;-18953.06;;;26.82;52.54
60583;BME280;46415;47.536;19.066;2023-07-02T08:16:08;-18961.31;;;27.13;51.25
60583;BME280;46415;47.536;19.066;2023-07-02T08:19:12;-18951.72;;;26.77;51.51
60583;BME280;46415;47.536;19.066;2023-07-02T08:22:15;-18945.66;;;26.55;52.41
60583;BME280;46415;47.536;19.066;2023-07-02T08:25:18;-18949.16;;;26.68;52.90
60583;BME280;46415;47.536;19.066;2023-07-02T08:28:24;-18951.06;;;26.75;53.66
60583;BME280;46415;47.536;19.066;2023-07-02T08:31:26;-18959.28;;;27.06;52.11
60583;BME280;46415;47.536;19.066;2023-07-02T08:34:29;-18966.16;;;27.32;52.41
60583;BME280;46415;47.536;19.066;2023-07-02T08:37:32;-18966.56;;;27.33;51.24
60583;BME280;46415;47.536;19.066;2023-07-02T08:40:35;-18966.41;;;27.33;50.94
60583;BME280;46415;47.536;19.066;2023-07-02T08:43:38;-18950.91;;;26.74;51.46
60583;BME280;46415;47.536;19.066;2023-07-02T08:46:42;-18937.16;;;26.23;53.45
60583;BME280;46415;47.536;19.066;2023-07-02T08:49:45;-18936.63;;;26.21;53.92
60583;BME280;46415;47.536;19.066;2023-07-02T08:52:50;-18937.28;;;26.23;53.45
60583;BME280;46415;47.536;19.066;2023-07-02T08:55:55;-18941.75;;;26.40;51.88
60583;BME280;46415;47.536;19.066;2023-07-02T08:58:58;-18945.53;;;26.54;50.94
60583;BME280;46415;47.536;19.066;2023-07-02T09:02:01;-18951.06;;;26.75;48.63
60583;BME280;46415;47.536;19.066;2023-07-02T09:05:05;-18948.34;;;26.65;49.66
60583;BME280;46415;47.536;19.066;2023-07-02T09:08:08;-18953.22;;;26.83;50.33
60583;BME280;46415;47.536;19.066;2023-07-02T09:11:11;-18952.94;;;26.82;49.86
60583;BME280;46415;47.536;19.066;2023-07-02T09:14:27;-18948.63;;;26.66;50.34
60583;BME280;46415;47.536;19.066;2023-07-02T09:17:35;-18954.97;;;26.90;50.38
60583;BME280;46415;47.536;19.066;2023-07-02T09:20:38;-18959.53;;;27.07;49.32
60583;BME280;46415;47.536;19.066;2023-07-02T09:23:41;-18952.53;;;26.80;48.99
60583;BME280;46415;47.536;19.066;2023-07-02T09:26:55;-18952.25;;;26.79;50.76
60583;BME280;46415;47.536;19.066;2023-07-02T09:30:06;-18961.72;;;27.15;48.96
60583;BME280;46415;47.536;19.066;2023-07-02T09:33:09;-18966.16;;;27.32;48.68
60583;BME280;46415;47.536;19.066;2023-07-02T09:36:12;-18967.91;;;27.38;50.21
60583;BME280;46415;47.536;19.066;2023-07-02T09:39:19;-18981.63;;;27.90;48.35
60583;BME280;46415;47.536;19.066;2023-07-02T09:42:25;-18978.53;;;27.78;48.08
60583;BME280;46415;47.536;19.066;2023-07-02T09:45:27;-18987.84;;;28.13;47.45
60583;BME280;46415;47.536;19.066;2023-07-02T09:48:32;-18990.41;;;28.23;46.63
60583;BME280;46415;47.536;19.066;2023-07-02T09:51:37;-18992.28;;;28.30;45.38
60583;BME280;46415;47.536;19.066;2023-07-02T09:54:41;-18988.78;;;28.17;45.04
60583;BME280;46415;47.536;19.066;2023-07-02T09:57:44;-18981.38;;;27.89;44.91
60583;BME280;46415;47.536;19.066;2023-07-02T10:00:47;-18983.94;;;27.98;44.98
60583;BME280;46415;47.536;19.066;2023-07-02T10:03:51;-18992.81;;;28.32;43.70
60583;BME280;46415;47.536;19.066;2023-07-02T10:06:55;-19000.09;;;28.59;43.26
60583;BME280;46415;47.536;19.066;2023-07-02T10:09:58;-19006.94;;;28.85;43.77
60583;BME280;46415;47.536;19.066;2023-07-02T10:13:01;-19006.28;;;28.83;42.94
60583;BME280;46415;47.536;19.066;2023-07-02T10:16:05;-19003.03;;;28.70;43.68
60583;BME280;46415;47.536;19.066;2023-07-02T10:19:11;-19006.16;;;28.82;42.76
60583;BME280;46415;47.536;19.066;2023-07-02T10:22:14;-19004.81;;;28.77;41.92
60583;BME280;46415;47.536;19.066;2023-07-02T10:25:31;-18996.59;;;28.46;42.09
60583;BME280;46415;47.536;19.066;2023-07-02T10:28:34;-19008.16;;;28.90;42.08
60583;BME280;46415;47.536;19.066;2023-07-02T10:31:48;-19013.94;;;29.11;41.99
60583;BME280;46415;47.536;19.066;2023-07-02T10:34:51;-19012.72;;;29.07;40.81
60583;BME280;46415;47.536;19.066;2023-07-02T10:37:54;-19001.03;;;28.63;42.56
60583;BME280;46415;47.536;19.066;2023-07-02T10:40:58;-19011.13;;;29.01;43.57
60583;BME280;46415;47.536;19.066;2023-07-02T10:44:10;-19010.19;;;28.97;42.59
60583;BME280;46415;47.536;19.066;2023-07-02T10:47:13;-19004.66;;;28.76;43.42
60583;BME280;46415;47.536;19.066;2023-07-02T10:50:17;-19010.72;;;28.99;42.92
60583;BME280;46415;47.536;19.066;2023-07-02T10:53:20;-19009.50;;;28.95;41.73
60583;BME280;46415;47.536;19.066;2023-07-02T10:56:23;-19011.37;;;29.02;41.82
60583;BME280;46415;47.536;19.066;2023-07-02T10:59:26;-19009.50;;;28.95;41.99
60583;BME280;46415;47.536;19.066;2023-07-02T11:02:42;-19013.94;;;29.11;42.17
60583;BME280;46415;47.536;19.066;2023-07-02T11:05:46;-19019.59;;;29.33;42.57
60583;BME280;46415;47.536;19.066;2023-07-02T11:08:49;-19025.91;;;29.56;42.62
60583;BME280;46415;47.536;19.066;2023-07-02T11:12:00;-19025.62;;;29.55;41.38
60583;BME280;46415;47.536;19.066;2023-07-02T11:18:16;-19020.00;;;29.34;41.74
60583;BME280;46415;47.536;19.066;2023-07-02T11:21:19;-19020.25;;;29.35;40.87
60583;BME280;46415;47.536;19.066;2023-07-02T11:24:33;-19024.03;;;29.49;40.96
60583;BME280;46415;47.536;19.066;2023-07-02T11:27:36;-19008.84;;;28.92;40.69
60583;BME280;46415;47.536;19.066;2023-07-02T11:30:45;-19007.63;;;28.88;40.61
60583;BME280;46415;47.536;19.066;2023-07-02T11:33:48;-19016.50;;;29.21;39.62
60583;BME280;46415;47.536;19.066;2023-07-02T11:36:51;-19024.97;;;29.53;38.64
60583;BME280;46415;47.536;19.066;2023-07-02T11:39:56;-19021.59;;;29.40;38.57
60583;BME280;46415;47.536;19.066;2023-07-02T11:42:59;-19024.69;;;29.52;39.55
60583;BME280;46415;47.536;19.066;2023-07-02T11:46:02;-19020.53;;;29.36;40.74
60583;BME280;46415;47.536;19.066;2023-07-02T11:49:05;-19008.16;;;28.90;40.65
60583;BME280;46415;47.536;19.066;2023-07-02T11:52:10;-19015.28;;;29.16;41.75
60583;BME280;46415;47.536;19.066;2023-07-02T11:55:15;-19024.84;;;29.52;39.76
60583;BME280;46415;47.536;19.066;2023-07-02T11:58:18;-19022.69;;;29.44;39.68
60583;BME280;46415;47.536;19.066;2023-07-02T12:01:20;-19021.34;;;29.39;39.10
60583;BME280;46415;47.536;19.066;2023-07-02T12:04:24;-19029.81;;;29.71;38.14
60583;BME280;46415;47.536;19.066;2023-07-02T12:07:26;-19026.72;;;29.59;38.19
60583;BME280;46415;47.536;19.066;2023-07-02T12:10:29;-19031.28;;;29.77;38.06
60583;BME280;46415;47.536;19.066;2023-07-02T12:13:32;-19039.34;;;30.07;38.66
60583;BME280;46415;47.536;19.066;2023-07-02T12:16:35;-19048.06;;;30.40;38.09
60583;BME280;46415;47.536;19.066;2023-07-02T12:19:38;-19049.28;;;30.45;37.72
60583;BME280;46415;47.536;19.066;2023-07-02T12:22:42;-19043.66;;;30.23;37.53
60583;BME280;46415;47.536;19.066;2023-07-02T12:25:46;-19047.94;;;30.39;37.56
60583;BME280;46415;47.536;19.066;2023-07-02T12:28:50;-19041.63;;;30.16;38.34
60583;BME280;46415;47.536;19.066;2023-07-02T12:31:52;-19048.22;;;30.40;38.94
60583;BME280;46415;47.536;19.066;2023-07-02T12:34:55;-19054.78;;;30.65;38.00
60583;BME280;46415;47.536;19.066;2023-07-02T12:37:59;-19056.00;;;30.70;38.49
60583;BME280;46415;47.536;19.066;2023-07-02T12:41:02;-19051.84;;;30.54;38.40
60583;BME280;46415;47.536;19.066;2023-07-02T12:44:06;-19058.81;;;30.80;39.06
60583;BME280;46415;47.536;19.066;2023-07-02T12:47:09;-19038.53;;;30.04;39.40
60583;BME280;46415;47.536;19.066;2023-07-02T12:50:11;-19022.00;;;29.42;39.15
60583;BME280;46415;47.536;19.066;2023-07-02T12:53:14;-19014.34;;;29.13;39.55
60583;BME280;46415;47.536;19.066;2023-07-02T12:56:17;-19008.97;;;28.93;40.42
60583;BME280;46415;47.536;19.066;2023-07-02T12:59:20;-19013.81;;;29.11;40.88
60583;BME280;46415;47.536;19.066;2023-07-02T13:02:23;-19013.28;;;29.09;41.08
60583;BME280;46415;47.536;19.066;2023-07-02T13:05:26;-19027.78;;;29.63;39.69
60583;BME280;46415;47.536;19.066;2023-07-02T13:08:29;-19032.09;;;29.80;39.59
60583;BME280;46415;47.536;19.066;2023-07-02T13:11:32;-19026.97;;;29.60;40.02
60583;BME280;46415;47.536;19.066;2023-07-02T13:14:34;-19013.28;;;29.09;39.01
60583;BME280;46415;47.536;19.066;2023-07-02T13:17:38;-19014.47;;;29.13;39.26
60583;BME280;46415;47.536;19.066;2023-07-02T13:20:40;-19014.47;;;29.13;38.35
60583;BME280;46415;47.536;19.066;2023-07-02T13:23:43;-19020.00;;;29.34;38.34
60583;BME280;46415;47.536;19.066;2023-07-02T13:26:46;-19020.25;;;29.35;37.23
60583;BME280;46415;47.536;19.066;2023-07-02T13:29:49;-19022.69;;;29.44;37.02
60583;BME280;46415;47.536;19.066;2023-07-02T13:32:51;-19015.69;;;29.18;37.01
60583;BME280;46415;47.536;19.066;2023-07-02T13:35:55;-19012.72;;;29.07;37.80
60583;BME280;46415;47.536;19.066;2023-07-02T13:38:58;-19012.59;;;29.06;37.45
60583;BME280;46415;47.536;19.066;2023-07-02T13:42:01;-19024.03;;;29.49;37.56
60583;BME280;46415;47.536;19.066;2023-07-02T13:45:03;-19029.41;;;29.70;37.56
60583;BME280;46415;47.536;19.066;2023-07-02T13:48:07;-19031.69;;;29.78;37.17
60583;BME280;46415;47.536;19.066;2023-07-02T13:51:09;-19039.06;;;30.06;37.35
60583;BME280;46415;47.536;19.066;2023-07-02T13:54:12;-19045.53;;;30.30;36.37
60583;BME280;46415;47.536;19.066;2023-07-02T13:57:16;-19053.84;;;30.62;35.86
60583;BME280;46415;47.536;19.066;2023-07-02T14:00:19;-19048.75;;;30.42;36.21
60583;BME280;46415;47.536;19.066;2023-07-02T14:03:22;-19039.63;;;30.08;36.87
60583;BME280;46415;47.536;19.066;2023-07-02T14:06:25;-19039.34;;;30.07;37.12
60583;BME280;46415;47.536;19.066;2023-07-02T14:09:28;-19048.59;;;30.42;35.79
60583;BME280;46415;47.536;19.066;2023-07-02T14:12:31;-19034.63;;;29.89;37.08
60583;BME280;46415;47.536;19.066;2023-07-02T14:15:34;-19034.50;;;29.89;37.39
60583;BME280;46415;47.536;19.066;2023-07-02T14:18:37;-19043.25;;;30.22;37.28
60583;BME280;46415;47.536;19.066;2023-07-02T14:21:40;-19054.66;;;30.65;36.37
60583;BME280;46415;47.536;19.066;2023-07-02T14:24:42;-19040.41;;;30.11;37.14
60583;BME280;46415;47.536;19.066;2023-07-02T14:27:45;-19028.31;;;29.66;38.67
60583;BME280;46415;47.536;19.066;2023-07-02T14:30:55;-19015.16;;;29.16;39.25
60583;BME280;46415;47.536;19.066;2023-07-02T14:33:59;-19011.13;;;29.01;39.68
60583;BME280;46415;47.536;19.066;2023-07-02T14:37:02;-19002.78;;;28.69;40.78
60583;BME280;46415;47.536;19.066;2023-07-02T14:40:06;-18999.53;;;28.57;40.99
60583;BME280;46415;47.536;19.066;2023-07-02T14:43:09;-19032.09;;;29.80;39.28
60583;BME280;46415;47.536;19.066;2023-07-02T14:46:12;-19044.72;;;30.27;38.04
60583;BME280;46415;47.536;19.066;2023-07-02T14:49:14;-19035.84;;;29.94;38.81
60583;BME280;46415;47.536;19.066;2023-07-02T14:52:17;-19054.25;;;30.63;38.03
60583;BME280;46415;47.536;19.066;2023-07-02T14:55:21;-19070.34;;;31.24;36.39
60583;BME280;46415;47.536;19.066;2023-07-02T14:58:25;-19109.09;;;32.70;34.36
60583;BME280;46415;47.536;19.066;2023-07-02T15:01:28;-19137.72;;;33.79;32.52
60583;BME280;46415;47.536;19.066;2023-07-02T15:04:31;-19119.94;;;33.11;33.33
60583;BME280;46415;47.536;19.066;2023-07-02T15:07:34;-19170.06;;;35.01;31.05
60583;BME280;46415;47.536;19.066;2023-07-02T15:10:37;-19250.03;;;38.05;26.79
60583;BME280;46415;47.536;19.066;2023-07-02T15:13:41;-19301.44;;;40.01;24.28
60583;BME280;46415;47.536;19.066;2023-07-02T15:16:44;-19246.44;;;37.91;26.36
60583;BME280;46415;47.536;19.066;2023-07-02T15:19:47;-19293.19;;;39.70;23.80
60583;BME280;46415;47.536;19.066;2023-07-02T15:22:50;-19351.09;;;41.91;21.18
60583;BME280;46415;47.536;19.066;2023-07-02T15:25:58;-19371.06;;;42.67;20.03
60583;BME280;46415;47.536;19.066;2023-07-02T15:29:01;-19352.69;;;41.97;19.54
60583;BME280;46415;47.536;19.066;2023-07-02T15:32:04;-19326.88;;;40.98;20.49
60583;BME280;46415;47.536;19.066;2023-07-02T15:35:07;-19341.72;;;41.55;19.93
60583;BME280;46415;47.536;19.066;2023-07-02T15:38:10;-19367.50;;;42.54;19.31
60583;BME280;46415;47.536;19.066;2023-07-02T15:41:18;-19379.41;;;42.99;18.54
60583;BME280;46415;47.536;19.066;2023-07-02T15:44:24;-19384.69;;;43.20;18.16
60583;BME280;46415;47.536;19.066;2023-07-02T15:47:27;-19379.41;;;42.99;17.57
60583;BME280;46415;47.536;19.066;2023-07-02T15:50:31;-19364.72;;;42.43;17.11
60583;BME280;46415;47.536;19.066;2023-07-02T15:53:36;-19338.41;;;41.42;17.81